sensor_id;sensor_type;location;lat;lon;timestamp;pressure;altitude;pressure_sealevel;temperature;humidity
4123;BME280;2075;51.062;6.920;2023-09-30T00:02:38;-11667.00;;;-144.48;100.00
4123;BME280;2075;51.062;6.920;2023-09-30T00:05:27;-11667.00;;;-144.48;100.00
4123;BME280;2075;51.062;6.920;2023-09-30T00:08:12;-11667.00;;;-144.48;100.00
4123;BME280;2075;51.062;6.920;2023-09-30T00:10:58;-11667.00;;;-144.48;100.00
4123;BME280;2075;51.062;6.920;2023-09-30T00:13:44;-11667.00;;;-144.48;100.00
4123;BME280;2075;51.062;6.920;2023-09-30T00:16:31;-11667.00;;;-144.48;100.00
4123;BME280;2075;51.062;6.920;2023-09-30T00:19:16;-11667.00;;;-144.48;100.00
4123;BME280;2075;51.062;6.920;2023-09-30T00:22:01;-11667.00;;;-144.48;100.00
4123;BME280;2075;51.062;6.920;2023-09-30T00:24:47;-11667.00;;;-144.48;100.00
4123;BME280;2075;51.062;6.920;2023-09-30T00:27:33;-11667.00;;;-144.48;100.00
4123;BME280;2075;51.062;6.920;2023-09-30T00:30:19;-11667.00;;;-144.48;100.00
4123;BME280;2075;51.062;6.920;2023-09-30T00:33:07;-11667.00;;;-144.48;100.00
4123;BME280;2075;51.062;6.920;2023-09-30T00:35:53;-11667.00;;;-144.48;100.00
4123;BME280;2075;51.062;6.920;2023-09-30T00:38:38;-11667.00;;;-144.48;100.00
4123;BME280;2075;51.062;6.920;2023-09-30T00:41:24;-11667.00;;;-144.48;100.00
4123;BME280;2075;51.062;6.920;2023-09-30T00:44:09;-11667.00;;;-144.48;100.00
4123;BME280;2075;51.062;6.920;2023-09-30T00:46:55;-11667.00;;;-144.48;100.00
4123;BME280;2075;51.062;6.920;2023-09-30T00:49:45;-11667.00;;;-144.48;100.00
4123;BME280;2075;51.062;6.920;2023-09-30T00:52:31;-11667.00;;;-144.48;100.00
4123;BME280;2075;51.062;6.920;2023-09-30T00:55:21;-11667.00;;;-144.48;100.00
4123;BME280;2075;51.062;6.920;2023-09-30T00:58:10;-11667.00;;;-144.48;100.00
4123;BME280;2075;51.062;6.920;2023-09-30T01:00:57;-11667.00;;;-144.48;100.00
4123;BME280;2075;51.062;6.920;2023-09-30T01:03:45;-11667.00;;;-144.48;100.00
4123;BME280;2075;51.062;6.920;2023-09-30T01:06:44;-11667.00;;;-144.48;100.00
4123;BME280;2075;51.062;6.920;2023-09-30T01:09:31;-11667.00;;;-144.48;100.00
4123;BME280;2075;51.062;6.920;2023-09-30T01:12:20;-11667.00;;;-144.48;100.00
4123;BME280;2075;51.062;6.920;2023-09-30T01:15:06;-11667.00;;;-144.48;100.00
4123;BME280;2075;51.062;6.920;2023-09-30T01:17:53;-11667.00;;;-144.48;100.00
4123;BME280;2075;51.062;6.920;2023-09-30T01:20:42;-11667.00;;;-144.48;100.00
4123;BME280;2075;51.062;6.920;2023-09-30T01:23:29;-11667.00;;;-144.48;100.00
4123;BME280;2075;51.062;6.920;2023-09-30T01:26:15;-11667.00;;;-144.48;100.00
4123;BME280;2075;51.062;6.920;2023-09-30T01:29:03;-11667.00;;;-144.48;100.00
4123;BME280;2075;51.062;6.920;2023-09-30T01:31:49;-11667.00;;;-144.48;100.00
4123;BME280;2075;51.062;6.920;2023-09-30T01:34:37;-11667.00;;;-144.48;100.00
4123;BME280;2075;51.062;6.920;2023-09-30T01:37:26;-11667.00;;;-144.48;100.00
4123;BME280;2075;51.062;6.920;2023-09-30T01:40:14;-11667.00;;;-144.48;100.00
4123;BME280;2075;51.062;6.920;2023-09-30T01:43:02;-11667.00;;;-144.48;100.00
4123;BME280;2075;51.062;6.920;2023-09-30T01:45:48;-11667.00;;;-144.48;100.00
4123;BME280;2075;51.062;6.920;2023-09-30T01:48:36;-11667.00;;;-144.48;100.00
4123;BME280;2075;51.062;6.920;2023-09-30T01:51:22;-11667.00;;;-144.48;100.00
4123;BME280;2075;51.062;6.920;2023-09-30T01:54:10;-11667.00;;;-144.48;100.00
4123;BME280;2075;51.062;6.920;2023-09-30T01:56:57;-11667.00;;;-144.48;100.00
4123;BME280;2075;51.062;6.920;2023-09-30T01:59:42;-11667.00;;;-144.48;100.00
4123;BME280;2075;51.062;6.920;2023-09-30T02:02:30;-11667.00;;;-144.48;100.00
4123;BME280;2075;51.062;6.920;2023-09-30T02:05:16;-11667.00;;;-144.48;100.00
4123;BME280;2075;51.062;6.920;2023-09-30T02:08:04;-11667.00;;;-144.48;100.00
4123;BME280;2075;51.062;6.920;2023-09-30T02:10:50;-11667.00;;;-144.48;100.00
4123;BME280;2075;51.062;6.920;2023-09-30T02:13:39;-11667.00;;;-144.48;100.00
4123;BME280;2075;51.062;6.920;2023-09-30T02:16:25;-11667.00;;;-144.48;100.00
4123;BME280;2075;51.062;6.920;2023-09-30T02:19:10;-11667.00;;;-144.48;100.00
4123;BME280;2075;51.062;6.920;2023-09-30T02:21:57;-11667.00;;;-144.48;100.00
4123;BME280;2075;51.062;6.920;2023-09-30T02:24:44;-11667.00;;;-144.48;100.00
4123;BME280;2075;51.062;6.920;2023-09-30T02:27:30;-11667.00;;;-144.48;100.00
4123;BME280;2075;51.062;6.920;2023-09-30T02:30:19;-11667.00;;;-144.48;100.00
4123;BME280;2075;51.062;6.920;2023-09-30T02:33:08;-11667.00;;;-144.48;100.00
4123;BME280;2075;51.062;6.920;2023-09-30T02:35:55;-11667.00;;;-144.48;100.00
4123;BME280;2075;51.062;6.920;2023-09-30T02:38:42;-11667.00;;;-144.48;100.00
4123;BME280;2075;51.062;6.920;2023-09-30T02:41:40;-11667.00;;;-144.48;100.00
4123;BME280;2075;51.062;6.920;2023-09-30T02:44:26;-11667.00;;;-144.48;100.00
4123;BME280;2075;51.062;6.920;2023-09-30T02:47:16;-11667.00;;;-144.48;100.00
4123;BME280;2075;51.062;6.920;2023-09-30T02:50:02;-11667.00;;;-144.48;100.00
4123;BME280;2075;51.062;6.920;2023-09-30T02:52:48;-11667.00;;;-144.48;100.00
4123;BME280;2075;51.062;6.920;2023-09-30T02:55:38;-11667.00;;;-144.48;100.00
4123;BME280;2075;51.062;6.920;2023-09-30T02:58:24;-11667.00;;;-144.48;100.00
4123;BME280;2075;51.062;6.920;2023-09-30T03:01:14;-11667.00;;;-144.48;100.00
4123;BME280;2075;51.062;6.920;2023-09-30T03:04:02;-11667.00;;;-144.48;100.00
4123;BME280;2075;51.062;6.920;2023-09-30T03:06:51;-11667.00;;;-144.48;100.00
4123;BME280;2075;51.062;6.920;2023-09-30T03:09:36;-11667.00;;;-144.48;100.00
4123;BME280;2075;51.062;6.920;2023-09-30T03:12:21;-11667.00;;;-144.48;100.00
4123;BME280;2075;51.062;6.920;2023-09-30T03:15:08;-11667.00;;;-144.48;100.00
4123;BME280;2075;51.062;6.920;2023-09-30T03:17:54;-11667.00;;;-144.48;100.00
4123;BME280;2075;51.062;6.920;2023-09-30T03:21:01;-11667.00;;;-144.48;100.00
4123;BME280;2075;51.062;6.920;2023-09-30T03:23:53;-11667.00;;;-144.48;100.00
4123;BME280;2075;51.062;6.920;2023-09-30T03:26:39;-11667.00;;;-144.48;100.00
4123;BME280;2075;51.062;6.920;2023-09-30T03:29:25;-11667.00;;;-144.48;100.00
4123;BME280;2075;51.062;6.920;2023-09-30T03:32:19;-11667.00;;;-144.48;100.00
4123;BME280;2075;51.062;6.920;2023-09-30T03:35:06;-11667.00;;;-144.48;100.00
4123;BME280;2075;51.062;6.920;2023-09-30T03:37:53;-11667.00;;;-144.48;100.00
4123;BME280;2075;51.062;6.920;2023-09-30T03:40:40;-11667.00;;;-144.48;100.00
4123;BME280;2075;51.062;6.920;2023-09-30T03:43:31;-11667.00;;;-144.48;100.00
4123;BME280;2075;51.062;6.920;2023-09-30T03:46:18;-11667.00;;;-144.48;100.00
4123;BME280;2075;51.062;6.920;2023-09-30T03:49:07;-11667.00;;;-144.48;100.00
4123;BME280;2075;51.062;6.920;2023-09-30T03:51:53;-11667.00;;;-144.48;100.00
4123;BME280;2075;51.062;6.920;2023-09-30T03:54:44;-11667.00;;;-144.48;100.00
4123;BME280;2075;51.062;6.920;2023-09-30T03:57:30;-11667.00;;;-144.48;100.00
4123;BME280;2075;51.062;6.920;2023-09-30T04:00:17;-11667.00;;;-144.48;100.00
4123;BME280;2075;51.062;6.920;2023-09-30T04:03:06;-11667.00;;;-144.48;100.00
4123;BME280;2075;51.062;6.920;2023-09-30T04:05:55;-11667.00;;;-144.48;100.00
4123;BME280;2075;51.062;6.920;2023-09-30T04:08:44;-11667.00;;;-144.48;100.00
4123;BME280;2075;51.062;6.920;2023-09-30T04:11:31;-11667.00;;;-144.48;100.00
4123;BME280;2075;51.062;6.920;2023-09-30T04:14:17;-11667.00;;;-144.48;100.00
4123;BME280;2075;51.062;6.920;2023-09-30T04:17:04;-11667.00;;;-144.48;100.00
4123;BME280;2075;51.062;6.920;2023-09-30T04:19:53;-11667.00;;;-144.48;100.00
4123;BME280;2075;51.062;6.920;2023-09-30T04:22:45;-11667.00;;;-144.48;100.00
4123;BME280;2075;51.062;6.920;2023-09-30T04:25:33;-11667.00;;;-144.48;100.00
4123;BME280;2075;51.062;6.920;2023-09-30T04:28:24;-11667.00;;;-144.48;100.00
4123;BME280;2075;51.062;6.920;2023-09-30T04:31:19;-11667.00;;;-144.48;100.00
4123;BME280;2075;51.062;6.920;2023-09-30T04:34:06;-11667.00;;;-144.48;100.00
4123;BME280;2075;51.062;6.920;2023-09-30T04:36:52;-11667.00;;;-144.48;100.00
4123;BME280;2075;51.062;6.920;2023-09-30T04:39:38;-11667.00;;;-144.48;100.00
4123;BME280;2075;51.062;6.920;2023-09-30T04:42:24;-11667.00;;;-144.48;100.00
4123;BME280;2075;51.062;6.920;2023-09-30T04:45:15;-11667.00;;;-144.48;100.00
4123;BME280;2075;51.062;6.920;2023-09-30T04:48:04;-11667.00;;;-144.48;100.00
4123;BME280;2075;51.062;6.920;2023-09-30T04:50:51;-11667.00;;;-144.48;100.00
4123;BME280;2075;51.062;6.920;2023-09-30T04:53:37;-11667.00;;;-144.48;100.00
4123;BME280;2075;51.062;6.920;2023-09-30T04:56:30;-11667.00;;;-144.48;100.00
4123;BME280;2075;51.062;6.920;2023-09-30T04:59:16;-11667.00;;;-144.48;100.00
4123;BME280;2075;51.062;6.920;2023-09-30T05:02:03;-11667.00;;;-144.48;100.00
4123;BME280;2075;51.062;6.920;2023-09-30T05:04:49;-11667.00;;;-144.48;100.00
4123;BME280;2075;51.062;6.920;2023-09-30T05:07:37;-11667.00;;;-144.48;100.00
4123;BME280;2075;51.062;6.920;2023-09-30T05:10:25;-11667.00;;;-144.48;100.00
4123;BME280;2075;51.062;6.920;2023-09-30T05:13:11;-11667.00;;;-144.48;100.00
4123;BME280;2075;51.062;6.920;2023-09-30T05:15:59;-11667.00;;;-144.48;100.00
4123;BME280;2075;51.062;6.920;2023-09-30T05:18:51;-11667.00;;;-144.48;100.00
4123;BME280;2075;51.062;6.920;2023-09-30T05:21:36;-11667.00;;;-144.48;100.00
4123;BME280;2075;51.062;6.920;2023-09-30T05:24:23;-11667.00;;;-144.48;100.00
4123;BME280;2075;51.062;6.920;2023-09-30T05:27:09;-11667.00;;;-144.48;100.00
4123;BME280;2075;51.062;6.920;2023-09-30T05:29:55;-11667.00;;;-144.48;100.00
4123;BME280;2075;51.062;6.920;2023-09-30T05:32:41;-11667.00;;;-144.48;100.00
4123;BME280;2075;51.062;6.920;2023-09-30T05:35:29;-11667.00;;;-144.48;100.00
4123;BME280;2075;51.062;6.920;2023-09-30T05:38:16;-11667.00;;;-144.48;100.00
4123;BME280;2075;51.062;6.920;2023-09-30T05:41:03;-11667.00;;;-144.48;100.00
4123;BME280;2075;51.062;6.920;2023-09-30T05:43:50;-11667.00;;;-144.48;100.00
4123;BME280;2075;51.062;6.920;2023-09-30T05:46:36;-11667.00;;;-144.48;100.00
4123;BME280;2075;51.062;6.920;2023-09-30T05:49:21;-11667.00;;;-144.48;100.00
4123;BME280;2075;51.062;6.920;2023-09-30T05:52:09;-11667.00;;;-144.48;100.00
4123;BME280;2075;51.062;6.920;2023-09-30T05:54:55;-11667.00;;;-144.48;100.00
4123;BME280;2075;51.062;6.920;2023-09-30T05:57:45;-11667.00;;;-144.48;100.00
4123;BME280;2075;51.062;6.920;2023-09-30T06:00:34;-11667.00;;;-144.48;100.00
4123;BME280;2075;51.062;6.920;2023-09-30T06:03:20;-11667.00;;;-144.48;100.00
4123;BME280;2075;51.062;6.920;2023-09-30T06:06:11;-11667.00;;;-144.48;100.00
4123;BME280;2075;51.062;6.920;2023-09-30T06:09:02;-11667.00;;;-144.48;100.00
4123;BME280;2075;51.062;6.920;2023-09-30T06:11:48;-11667.00;;;-144.48;100.00
4123;BME280;2075;51.062;6.920;2023-09-30T06:14:35;-11667.00;;;-144.48;100.00
4123;BME280;2075;51.062;6.920;2023-09-30T06:17:20;-11667.00;;;-144.48;100.00
4123;BME280;2075;51.062;6.920;2023-09-30T06:20:07;-11667.00;;;-144.48;100.00
4123;BME280;2075;51.062;6.920;2023-09-30T06:23:03;-11667.00;;;-144.48;100.00
4123;BME280;2075;51.062;6.920;2023-09-30T06:25:50;-11667.00;;;-144.48;100.00
4123;BME280;2075;51.062;6.920;2023-09-30T06:28:36;70142.94;;;-144.48;100.00
4123;BME280;2075;51.062;6.920;2023-09-30T06:31:33;93408.38;;;-144.48;100.00
4123;BME280;2075;51.062;6.920;2023-09-30T06:34:19;93160.59;;;-144.48;100.00
4123;BME280;2075;51.062;6.920;2023-09-30T06:37:08;93128.09;;;-144.48;91.95
4123;BME280;2075;51.062;6.920;2023-09-30T06:39:56;92939.22;;;-144.48;78.18
4123;BME280;2075;51.062;6.920;2023-09-30T06:42:45;92719.88;;;-144.48;68.07
4123;BME280;2075;51.062;6.920;2023-09-30T06:45:31;92795.03;;;-144.48;57.19
4123;BME280;2075;51.062;6.920;2023-09-30T06:48:17;92470.13;;;-144.48;54.99
4123;BME280;2075;51.062;6.920;2023-09-30T06:51:03;92490.41;;;-144.48;50.55
4123;BME280;2075;51.062;6.920;2023-09-30T06:53:49;92131.03;;;-144.48;49.82
4123;BME280;2075;51.062;6.920;2023-09-30T06:56:35;92399.03;;;-144.48;48.56
4123;BME280;2075;51.062;6.920;2023-09-30T06:59:24;92488.38;;;-144.48;48.20
4123;BME280;2075;51.062;6.920;2023-09-30T07:02:11;92482.31;;;-144.48;50.06
4123;BME280;2075;51.062;6.920;2023-09-30T07:04:57;92376.72;;;-144.48;48.06
4123;BME280;2075;51.062;6.920;2023-09-30T07:07:42;91966.56;;;-144.48;43.74
4123;BME280;2075;51.062;6.920;2023-09-30T07:10:29;91958.44;;;-144.48;41.37
4123;BME280;2075;51.062;6.920;2023-09-30T07:13:16;91814.28;;;-144.48;42.37
4123;BME280;2075;51.062;6.920;2023-09-30T07:16:04;91861.00;;;-144.48;40.91
4123;BME280;2075;51.062;6.920;2023-09-30T07:18:50;91836.63;;;-144.48;41.01
4123;BME280;2075;51.062;6.920;2023-09-30T07:21:35;92415.28;;;-144.48;46.06
4123;BME280;2075;51.062;6.920;2023-09-30T07:24:21;92851.88;;;-144.48;57.83
4123;BME280;2075;51.062;6.920;2023-09-30T07:27:06;93359.63;;;-144.48;81.76
4123;BME280;2075;51.062;6.920;2023-09-30T07:29:52;93497.75;;;-144.48;95.20
4123;BME280;2075;51.062;6.920;2023-09-30T07:32:41;93499.78;;;-144.48;100.00
4123;BME280;2075;51.062;6.920;2023-09-30T07:35:26;93609.47;;;-144.48;100.00
4123;BME280;2075;51.062;6.920;2023-09-30T07:38:12;93587.13;;;-144.48;100.00
4123;BME280;2075;51.062;6.920;2023-09-30T07:41:00;93375.88;;;-144.48;100.00
4123;BME280;2075;51.062;6.920;2023-09-30T07:43:54;93294.63;;;-144.48;100.00
4123;BME280;2075;51.062;6.920;2023-09-30T07:46:40;93591.19;;;-144.48;100.00
4123;BME280;2075;51.062;6.920;2023-09-30T07:49:28;93593.22;;;-144.48;100.00
4123;BME280;2075;51.062;6.920;2023-09-30T07:52:13;93615.56;;;-144.48;100.00
4123;BME280;2075;51.062;6.920;2023-09-30T07:54:59;93444.94;;;-144.48;100.00
4123;BME280;2075;51.062;6.920;2023-09-30T07:57:49;92567.59;;;-144.48;100.00
4123;BME280;2075;51.062;6.920;2023-09-30T08:00:34;90289.94;;;-144.48;100.00
4123;BME280;2075;51.062;6.920;2023-09-30T08:03:23;81738.78;;;-144.48;100.00
4123;BME280;2075;51.062;6.920;2023-09-30T08:06:12;82200.38;;;-144.48;100.00
4123;BME280;2075;51.062;6.920;2023-09-30T08:08:58;84087.78;;;-144.48;100.00
4123;BME280;2075;51.062;6.920;2023-09-30T08:11:43;62744.81;;;-144.48;100.00
4123;BME280;2075;51.062;6.920;2023-09-30T08:14:29;63002.50;;;-144.48;100.00
4123;BME280;2075;51.062;6.920;2023-09-30T08:17:15;74303.47;;;-144.48;100.00
4123;BME280;2075;51.062;6.920;2023-09-30T08:20:02;67386.16;;;-144.48;100.00
4123;BME280;2075;51.062;6.920;2023-09-30T08:22:56;63517.94;;;-144.48;100.00
4123;BME280;2075;51.062;6.920;2023-09-30T08:25:42;69096.03;;;-144.48;100.00
4123;BME280;2075;51.062;6.920;2023-09-30T08:28:28;88689.16;;;-144.48;100.00
4123;BME280;2075;51.062;6.920;2023-09-30T08:31:13;92252.84;;;-144.48;100.00
4123;BME280;2075;51.062;6.920;2023-09-30T08:34:00;93178.88;;;-144.48;100.00
4123;BME280;2075;51.062;6.920;2023-09-30T08:36:48;93339.31;;;-144.48;100.00
4123;BME280;2075;51.062;6.920;2023-09-30T08:39:39;93359.63;;;-144.48;100.00
4123;BME280;2075;51.062;6.920;2023-09-30T08:42:27;93420.56;;;-144.48;100.00
4123;BME280;2075;51.062;6.920;2023-09-30T08:45:17;93306.81;;;-144.48;100.00
4123;BME280;2075;51.062;6.920;2023-09-30T08:48:06;93369.78;;;-144.48;100.00
4123;BME280;2075;51.062;6.920;2023-09-30T08:50:56;93256.06;;;-144.48;100.00
4123;BME280;2075;51.062;6.920;2023-09-30T08:53:44;93290.56;;;-144.48;100.00
4123;BME280;2075;51.062;6.920;2023-09-30T08:56:35;93430.72;;;-144.48;100.00
4123;BME280;2075;51.062;6.920;2023-09-30T08:59:22;93343.38;;;-144.48;100.00
4123;BME280;2075;51.062;6.920;2023-09-30T09:02:08;93461.19;;;-144.48;100.00
4123;BME280;2075;51.062;6.920;2023-09-30T09:04:54;93371.81;;;-144.48;100.00
4123;BME280;2075;51.062;6.920;2023-09-30T09:07:40;92872.19;;;-144.48;100.00
4123;BME280;2075;51.062;6.920;2023-09-30T09:10:29;92725.97;;;-144.48;100.00
4123;BME280;2075;51.062;6.920;2023-09-30T09:13:16;93091.53;;;-144.48;100.00
4123;BME280;2075;51.062;6.920;2023-09-30T09:16:08;93266.22;;;-144.48;100.00
4123;BME280;2075;51.062;6.920;2023-09-30T09:18:54;91930.03;;;-144.48;100.00
4123;BME280;2075;51.062;6.920;2023-09-30T09:21:54;92323.91;;;-144.48;100.00
4123;BME280;2075;51.062;6.920;2023-09-30T09:24:40;93111.84;;;-144.48;100.00
4123;BME280;2075;51.062;6.920;2023-09-30T09:27:27;93469.31;;;-144.48;98.64
4123;BME280;2075;51.062;6.920;2023-09-30T09:30:19;93475.41;;;-144.48;96.76
4123;BME280;2075;51.062;6.920;2023-09-30T09:33:06;93473.38;;;-144.48;97.66
4123;BME280;2075;51.062;6.920;2023-09-30T09:35:51;93511.97;;;-144.48;94.61
4123;BME280;2075;51.062;6.920;2023-09-30T09:38:43;93503.84;;;-144.48;95.65
4123;BME280;2075;51.062;6.920;2023-09-30T09:41:57;93516.03;;;-144.48;96.46
4123;BME280;2075;51.062;6.920;2023-09-30T09:44:49;93473.38;;;-144.48;96.09
4123;BME280;2075;51.062;6.920;2023-09-30T09:47:37;93442.91;;;-144.48;96.03
4123;BME280;2075;51.062;6.920;2023-09-30T09:50:22;93398.22;;;-144.48;93.71
4123;BME280;2075;51.062;6.920;2023-09-30T09:53:10;93442.91;;;-144.48;92.73
4123;BME280;2075;51.062;6.920;2023-09-30T09:55:59;93379.94;;;-144.48;92.34
4123;BME280;2075;51.062;6.920;2023-09-30T09:58:47;93339.31;;;-144.48;89.82
4123;BME280;2075;51.062;6.920;2023-09-30T10:01:33;93416.50;;;-144.48;88.68
4123;BME280;2075;51.062;6.920;2023-09-30T10:04:21;93424.63;;;-144.48;90.20
4123;BME280;2075;51.062;6.920;2023-09-30T10:07:07;93367.75;;;-144.48;85.52
4123;BME280;2075;51.062;6.920;2023-09-30T10:10:00;93329.16;;;-144.48;82.60
4123;BME280;2075;51.062;6.920;2023-09-30T10:12:48;93316.97;;;-144.48;80.68
4123;BME280;2075;51.062;6.920;2023-09-30T10:15:39;93361.66;;;-144.48;80.95
4123;BME280;2075;51.062;6.920;2023-09-30T10:18:27;93355.56;;;-144.48;82.52
4123;BME280;2075;51.062;6.920;2023-09-30T10:21:14;93373.84;;;-144.48;80.43
4123;BME280;2075;51.062;6.920;2023-09-30T10:24:28;93329.16;;;-144.48;80.70
4123;BME280;2075;51.062;6.920;2023-09-30T10:27:29;93310.88;;;-144.48;80.89
4123;BME280;2075;51.062;6.920;2023-09-30T10:30:16;93235.75;;;-144.48;78.26
4123;BME280;2075;51.062;6.920;2023-09-30T10:33:10;93274.34;;;-144.48;77.59
4123;BME280;2075;51.062;6.920;2023-09-30T10:36:04;93501.81;;;-144.48;78.35
4123;BME280;2075;51.062;6.920;2023-09-30T10:38:55;93432.75;;;-144.48;77.67
4123;BME280;2075;51.062;6.920;2023-09-30T10:41:51;93351.50;;;-144.48;77.63
4123;BME280;2075;51.062;6.920;2023-09-30T10:44:36;93314.94;;;-144.48;75.44
4123;BME280;2075;51.062;6.920;2023-09-30T10:47:34;93280.41;;;-144.48;76.01
4123;BME280;2075;51.062;6.920;2023-09-30T10:50:49;93294.63;;;-144.48;73.41
4123;BME280;2075;51.062;6.920;2023-09-30T10:53:45;93022.47;;;-144.48;76.20
4123;BME280;2075;51.062;6.920;2023-09-30T10:56:33;93331.19;;;-144.48;73.67
4123;BME280;2075;51.062;6.920;2023-09-30T10:59:19;93227.63;;;-144.48;72.57
4123;BME280;2075;51.062;6.920;2023-09-30T11:02:18;93156.53;;;-144.48;69.68
4123;BME280;2075;51.062;6.920;2023-09-30T11:05:09;93274.34;;;-144.48;69.64
4123;BME280;2075;51.062;6.920;2023-09-30T11:08:00;93292.59;;;-144.48;70.70
4123;BME280;2075;51.062;6.920;2023-09-30T11:10:48;93254.03;;;-144.48;72.65
4123;BME280;2075;51.062;6.920;2023-09-30T11:13:40;93233.72;;;-144.48;70.11
4123;BME280;2075;51.062;6.920;2023-09-30T11:16:25;93274.34;;;-144.48;70.07
4123;BME280;2075;51.062;6.920;2023-09-30T11:19:12;93229.66;;;-144.48;69.04
4123;BME280;2075;51.062;6.920;2023-09-30T11:22:00;93264.19;;;-144.48;67.00
4123;BME280;2075;51.062;6.920;2023-09-30T11:24:48;93310.88;;;-144.48;68.45
4123;BME280;2075;51.062;6.920;2023-09-30T11:27:34;93371.81;;;-144.48;69.02
4123;BME280;2075;51.062;6.920;2023-09-30T11:30:25;93314.94;;;-144.48;68.23
4123;BME280;2075;51.062;6.920;2023-09-30T11:33:11;93276.38;;;-144.48;66.51
4123;BME280;2075;51.062;6.920;2023-09-30T11:36:04;93229.66;;;-144.48;66.54
4123;BME280;2075;51.062;6.920;2023-09-30T11:38:53;93258.09;;;-144.48;65.17
4123;BME280;2075;51.062;6.920;2023-09-30T11:41:42;93298.69;;;-144.48;64.81
4123;BME280;2075;51.062;6.920;2023-09-30T11:44:28;93288.53;;;-144.48;63.66
4123;BME280;2075;51.062;6.920;2023-09-30T11:47:16;93180.91;;;-144.48;63.29
4123;BME280;2075;51.062;6.920;2023-09-30T11:50:04;93217.47;;;-144.48;62.26
4123;BME280;2075;51.062;6.920;2023-09-30T11:52:52;93189.03;;;-144.48;62.12
4123;BME280;2075;51.062;6.920;2023-09-30T11:55:39;93144.34;;;-144.48;61.24
4123;BME280;2075;51.062;6.920;2023-09-30T11:58:28;93591.19;;;-144.48;60.82
4123;BME280;2075;51.062;6.920;2023-09-30T12:01:16;93193.09;;;-144.48;60.31
4123;BME280;2075;51.062;6.920;2023-09-30T12:04:07;93170.75;;;-144.48;59.96
4123;BME280;2075;51.062;6.920;2023-09-30T12:06:55;93187.00;;;-144.48;59.92
4123;BME280;2075;51.062;6.920;2023-09-30T12:09:41;93180.91;;;-144.48;60.53
4123;BME280;2075;51.062;6.920;2023-09-30T12:12:29;93091.53;;;-144.48;58.89
4123;BME280;2075;51.062;6.920;2023-09-30T12:15:15;93187.00;;;-144.48;57.98
4123;BME280;2075;51.062;6.920;2023-09-30T12:18:01;93050.91;;;-144.48;55.93
4123;BME280;2075;51.062;6.920;2023-09-30T12:20:48;93089.50;;;-144.48;55.98
4123;BME280;2075;51.062;6.920;2023-09-30T12:23:34;93050.91;;;-144.48;56.93
4123;BME280;2075;51.062;6.920;2023-09-30T12:26:19;93059.03;;;-144.48;57.02
4123;BME280;2075;51.062;6.920;2023-09-30T12:29:06;93065.13;;;-144.48;54.06
4123;BME280;2075;51.062;6.920;2023-09-30T12:31:53;93040.75;;;-144.48;52.96
4123;BME280;2075;51.062;6.920;2023-09-30T12:34:38;92941.25;;;-144.48;52.30
4123;BME280;2075;51.062;6.920;2023-09-30T12:37:25;93050.91;;;-144.48;51.87
4123;BME280;2075;51.062;6.920;2023-09-30T12:40:13;93087.47;;;-144.48;51.88
4123;BME280;2075;51.062;6.920;2023-09-30T12:43:02;93065.13;;;-144.48;52.06
4123;BME280;2075;51.062;6.920;2023-09-30T12:45:49;93089.50;;;-144.48;53.05
4123;BME280;2075;51.062;6.920;2023-09-30T12:48:35;93034.66;;;-144.48;52.30
4123;BME280;2075;51.062;6.920;2023-09-30T12:51:22;92998.13;;;-144.48;52.39
4123;BME280;2075;51.062;6.920;2023-09-30T12:54:10;92971.72;;;-144.48;50.08
4123;BME280;2075;51.062;6.920;2023-09-30T12:56:59;93002.19;;;-144.48;48.40
4123;BME280;2075;51.062;6.920;2023-09-30T13:00:00;92981.88;;;-144.48;46.79
4123;BME280;2075;51.062;6.920;2023-09-30T13:02:47;92959.53;;;-144.48;46.98
4123;BME280;2075;51.062;6.920;2023-09-30T13:05:32;92908.75;;;-144.48;49.14
4123;BME280;2075;51.062;6.920;2023-09-30T13:08:18;92931.09;;;-144.48;47.43
4123;BME280;2075;51.062;6.920;2023-09-30T13:11:05;92864.06;;;-144.48;46.92
4123;BME280;2075;51.062;6.920;2023-09-30T13:13:51;92864.06;;;-144.48;46.19
4123;BME280;2075;51.062;6.920;2023-09-30T13:16:39;92853.94;;;-144.48;45.30
4123;BME280;2075;51.062;6.920;2023-09-30T13:19:26;92847.81;;;-144.48;44.84
4123;BME280;2075;51.062;6.920;2023-09-30T13:22:17;92886.41;;;-144.48;44.99
4123;BME280;2075;51.062;6.920;2023-09-30T13:25:06;92809.25;;;-144.48;45.45
4123;BME280;2075;51.062;6.920;2023-09-30T13:27:56;92896.56;;;-144.48;47.02
4123;BME280;2075;51.062;6.920;2023-09-30T13:30:42;92898.59;;;-144.48;46.66
4123;BME280;2075;51.062;6.920;2023-09-30T13:33:29;92845.81;;;-144.48;46.53
4123;BME280;2075;51.062;6.920;2023-09-30T13:36:15;92679.28;;;-144.48;46.50
4123;BME280;2075;51.062;6.920;2023-09-30T13:39:00;92756.44;;;-144.48;45.02
4123;BME280;2075;51.062;6.920;2023-09-30T13:41:49;92640.69;;;-144.48;44.56
4123;BME280;2075;51.062;6.920;2023-09-30T13:44:36;92725.97;;;-144.48;43.68
4123;BME280;2075;51.062;6.920;2023-09-30T13:47:21;92695.53;;;-144.48;42.21
4123;BME280;2075;51.062;6.920;2023-09-30T13:50:08;92815.34;;;-144.48;43.54
4123;BME280;2075;51.062;6.920;2023-09-30T13:52:53;93333.22;;;-144.48;45.06
4123;BME280;2075;51.062;6.920;2023-09-30T13:55:39;92904.69;;;-144.48;44.00
4123;BME280;2075;51.062;6.920;2023-09-30T13:58:26;92935.16;;;-144.48;44.21
4123;BME280;2075;51.062;6.920;2023-09-30T14:01:14;92983.91;;;-144.48;45.97
4123;BME280;2075;51.062;6.920;2023-09-30T14:03:59;93000.16;;;-144.48;47.24
4123;BME280;2075;51.062;6.920;2023-09-30T14:06:46;93008.28;;;-144.48;47.58
4123;BME280;2075;51.062;6.920;2023-09-30T14:09:31;93030.59;;;-144.48;49.03
4123;BME280;2075;51.062;6.920;2023-09-30T14:12:17;93077.31;;;-144.48;48.93
4123;BME280;2075;51.062;6.920;2023-09-30T14:15:03;93046.84;;;-144.48;47.88
4123;BME280;2075;51.062;6.920;2023-09-30T14:17:51;93067.16;;;-144.48;47.97
4123;BME280;2075;51.062;6.920;2023-09-30T14:20:36;93081.38;;;-144.48;48.11
4123;BME280;2075;51.062;6.920;2023-09-30T14:23:21;93067.16;;;-144.48;48.69
4123;BME280;2075;51.062;6.920;2023-09-30T14:26:07;93101.69;;;-144.48;48.24
4123;BME280;2075;51.062;6.920;2023-09-30T14:28:54;93052.94;;;-144.48;48.72
4123;BME280;2075;51.062;6.920;2023-09-30T14:31:40;93623.69;;;-144.48;48.64
4123;BME280;2075;51.062;6.920;2023-09-30T14:34:27;92772.69;;;-144.48;49.87
4123;BME280;2075;51.062;6.920;2023-09-30T14:37:13;93113.88;;;-144.48;50.54
4123;BME280;2075;51.062;6.920;2023-09-30T14:39:58;93059.03;;;-144.48;50.45